createdAt,value
2023-02-22T00:03:08.105Z,45.59
2023-02-22T00:08:11.453Z,45.66
2023-02-22T00:13:15.647Z,45.70
2023-02-22T00:18:19.298Z,45.65
2023-02-22T00:23:23.590Z,45.75
2023-02-22T00:28:27.884Z,45.80
2023-02-22T00:33:31.779Z,45.82
2023-02-22T00:38:34.597Z,45.74
2023-02-22T00:43:39.816Z,45.82
2023-02-22T00:48:42.649Z,45.70
2023-02-22T00:53:46.524Z,45.82
2023-02-22T00:58:50.812Z,45.69
2023-02-22T01:03:53.661Z,45.95
2023-02-22T01:08:56.582Z,45.91
2023-02-22T01:14:01.514Z,45.96
2023-02-22T01:19:06.159Z,46.02
2023-02-22T01:24:09.135Z,45.69
2023-02-22T01:29:15.408Z,45.77
2023-02-22T01:34:18.371Z,45.98
2023-02-22T01:39:21.181Z,45.90
2023-02-22T01:44:30.226Z,45.88
2023-02-22T01:49:37.500Z,45.98
2023-02-22T01:54:42.770Z,46.11
2023-02-22T01:59:48.361Z,46.02
2023-02-22T02:04:51.308Z,46.06
2023-02-22T02:09:57.689Z,46.02
2023-02-22T02:15:20.317Z,45.93
2023-02-22T02:20:27.777Z,46.10
2023-02-22T02:25:57.264Z,45.84
2023-02-22T02:31:32.767Z,45.98
2023-02-22T02:36:42.722Z,46.17
2023-02-22T02:41:46.446Z,46.24
2023-02-22T02:46:51.626Z,46.05
2023-02-22T02:51:57.304Z,45.92
2023-02-22T02:57:00.038Z,46.07
2023-02-22T03:02:12.816Z,46.16
2023-02-22T03:07:30.084Z,46.17
2023-02-22T03:12:39.891Z,46.12
2023-02-22T03:17:47.575Z,46.18
2023-02-22T03:22:56.411Z,46.27
2023-02-22T03:28:02.337Z,46.27
2023-02-22T03:33:08.999Z,46.32
2023-02-22T03:38:14.243Z,46.43
2023-02-22T03:43:19.051Z,46.36
2023-02-22T03:48:25.189Z,46.43
2023-02-22T03:53:30.510Z,46.24
2023-02-22T03:58:33.615Z,46.48
2023-02-22T04:03:36.417Z,46.45
2023-02-22T04:08:40.974Z,46.45
2023-02-22T04:13:44.006Z,46.54
2023-02-22T04:18:47.422Z,46.54
2023-02-22T04:23:55.414Z,46.98
2023-02-22T04:28:58.346Z,46.94
2023-02-22T04:34:04.713Z,46.77
2023-02-22T04:39:12.506Z,46.75
2023-02-22T04:44:15.443Z,46.72
2023-02-22T04:49:18.434Z,46.87
2023-02-22T04:54:24.201Z,46.84
2023-02-22T04:59:27.598Z,47.03
2023-02-22T05:04:36.901Z,47.01
2023-02-22T05:09:41.064Z,47.14
2023-02-22T05:14:44.489Z,46.88
2023-02-22T05:19:47.648Z,47.24
2023-02-22T05:24:52.557Z,47.18
2023-02-22T05:29:55.308Z,47.25
2023-02-22T05:34:58.038Z,47.36
2023-02-22T05:40:02.178Z,47.44
2023-02-22T05:45:05.390Z,47.36
2023-02-22T05:50:09.446Z,47.29
2023-02-22T05:55:14.757Z,47.39
2023-02-22T06:00:19.178Z,47.41
2023-02-22T06:05:22.041Z,47.39
2023-02-22T06:10:26.446Z,47.53
2023-02-22T06:15:29.875Z,47.58
2023-02-22T06:20:33.336Z,47.66
2023-02-22T06:25:37.466Z,47.56
2023-02-22T06:30:41.048Z,47.68
2023-02-22T06:35:43.814Z,47.72
2023-02-22T06:40:48.091Z,47.89
2023-02-22T06:45:50.905Z,47.89
2023-02-22T06:50:53.922Z,47.89
2023-02-22T06:55:58.105Z,47.95
2023-02-22T07:01:02.761Z,48.13
2023-02-22T07:06:07.321Z,48.13
2023-02-22T07:11:11.698Z,48.30
2023-02-22T07:16:14.561Z,48.15
2023-02-22T07:21:19.097Z,48.43
2023-02-22T07:26:23.559Z,48.45
2023-02-22T07:31:28.791Z,48.41
2023-02-22T07:36:32.565Z,48.40
2023-02-22T07:41:36.845Z,48.41
2023-02-22T07:46:48.316Z,48.46
2023-02-22T07:51:51.156Z,48.65
2023-02-22T07:56:55.365Z,48.79
2023-02-22T08:01:58.172Z,41.31
2023-02-22T08:07:01.205Z,41.89
2023-02-22T08:12:05.848Z,42.51
2023-02-22T08:17:09.472Z,43.23
2023-02-22T08:22:12.349Z,44.16
2023-02-22T08:27:16.461Z,43.54
2023-02-22T08:32:19.417Z,43.26
2023-02-22T08:37:22.261Z,43.14
2023-02-22T08:42:26.452Z,43.35
2023-02-22T08:47:29.226Z,43.44
2023-02-22T08:52:32.104Z,43.53
2023-02-22T08:57:36.269Z,40.97
2023-02-22T09:02:39.141Z,42.68
2023-02-22T09:07:43.038Z,43.26
2023-02-22T09:12:47.280Z,43.42
2023-02-22T09:17:50.033Z,43.58
2023-02-22T09:22:53.208Z,43.32
2023-02-22T09:27:57.583Z,43.45
2023-02-22T09:33:01.652Z,43.60
2023-02-22T09:38:06.180Z,43.75
2023-02-22T09:43:21.740Z,43.78
2023-02-22T09:48:25.266Z,43.88
2023-02-22T09:53:30.407Z,43.78
2023-02-22T09:58:36.719Z,43.47
2023-02-22T10:03:46.319Z,43.52
2023-02-22T10:08:50.173Z,43.73
2023-02-22T10:13:57.979Z,43.80
2023-02-22T10:19:08.516Z,43.83
2023-02-22T10:24:16.198Z,43.69
2023-02-22T10:29:22.383Z,43.75
2023-02-22T10:34:26.200Z,44.08
2023-02-22T10:39:30.992Z,44.21
2023-02-22T10:44:35.343Z,43.94
2023-02-22T10:49:42.146Z,44.14
2023-02-22T10:54:46.577Z,44.08
2023-02-22T10:59:51.977Z,43.91
2023-02-22T11:04:55.569Z,43.76
2023-02-22T11:09:59.543Z,43.84
2023-02-22T11:15:26.601Z,43.90
2023-02-22T11:20:34.385Z,44.00
2023-02-22T11:25:38.640Z,44.07
2023-02-22T11:30:43.972Z,44.00
2023-02-22T11:35:52.640Z,44.16
2023-02-22T11:41:14.491Z,44.19
2023-02-22T11:46:20.029Z,44.31
2023-02-22T11:51:28.250Z,44.05
2023-02-22T11:56:38.083Z,43.42
2023-02-22T12:01:46.370Z,43.50
2023-02-22T12:06:52.451Z,43.23
2023-02-22T12:12:00.854Z,43.25
2023-02-22T12:17:20.441Z,43.48
2023-02-22T12:22:25.674Z,43.49
2023-02-22T12:27:31.122Z,43.46
2023-02-22T12:32:38.119Z,43.44
2023-02-22T12:37:53.427Z,43.32
2023-02-22T12:42:59.624Z,43.31
2023-02-22T12:48:11.053Z,43.33
2023-02-22T12:53:15.438Z,42.89
2023-02-22T12:58:23.137Z,42.80
2023-02-22T13:03:31.695Z,42.61
2023-02-22T13:08:36.745Z,42.84
2023-02-22T13:13:42.366Z,42.52
2023-02-22T13:18:49.546Z,42.62
2023-02-22T13:23:55.119Z,43.37
2023-02-22T13:29:00.191Z,44.65
2023-02-22T13:34:32.906Z,44.60
2023-02-22T13:39:42.129Z,45.71
2023-02-22T13:45:03.292Z,46.38
2023-02-22T13:50:25.786Z,46.27
2023-02-22T13:55:32.752Z,46.04
2023-02-22T14:00:47.014Z,46.69
2023-02-22T14:05:52.686Z,47.15
2023-02-22T14:10:56.147Z,47.18
2023-02-22T14:16:19.681Z,46.81
2023-02-22T14:21:24.744Z,45.45
2023-02-22T14:26:28.619Z,40.73
2023-02-22T14:31:37.375Z,43.77
2023-02-22T14:36:45.804Z,44.86
2023-02-22T14:41:53.823Z,45.12
2023-02-22T14:46:57.615Z,45.11
2023-02-22T14:52:05.642Z,45.20
2023-02-22T14:57:14.810Z,45.37
2023-02-22T15:02:19.824Z,45.13
2023-02-22T15:07:27.651Z,45.46
2023-02-22T15:12:30.887Z,45.17
2023-02-22T15:17:34.010Z,45.25
2023-02-22T15:22:38.180Z,45.36
2023-02-22T15:27:40.944Z,45.45
2023-02-22T15:33:01.295Z,45.47
2023-02-22T15:38:08.266Z,45.62
2023-02-22T15:43:18.815Z,45.77
2023-02-22T15:48:21.709Z,46.08
2023-02-22T15:53:27.421Z,45.96
2023-02-22T15:58:30.227Z,45.91
2023-02-22T16:03:38.657Z,46.15
2023-02-22T16:08:54.459Z,46.17
2023-02-22T16:14:00.326Z,46.00
2023-02-22T16:19:37.450Z,46.00
2023-02-22T16:24:42.363Z,46.16
2023-02-22T16:29:45.288Z,46.32
2023-02-22T16:34:48.119Z,46.57
2023-02-22T16:39:53.074Z,46.47
2023-02-22T16:44:56.005Z,46.27
2023-02-22T16:49:58.762Z,46.58
2023-02-22T16:55:02.922Z,46.70
2023-02-22T17:00:09.729Z,47.60
2023-02-22T17:05:14.804Z,47.43
2023-02-22T17:10:19.542Z,47.63
2023-02-22T17:15:27.100Z,47.65
2023-02-22T17:20:30.968Z,47.81
2023-02-22T17:25:37.695Z,47.92
2023-02-22T17:30:41.342Z,47.50
2023-02-22T17:35:44.488Z,47.71
2023-02-22T17:40:49.066Z,47.57
2023-02-22T17:45:51.934Z,47.72
2023-02-22T17:50:54.964Z,47.66
2023-02-22T17:55:59.318Z,47.74
2023-02-22T18:01:02.197Z,47.86
2023-02-22T18:06:05.949Z,47.62
2023-02-22T18:11:10.246Z,47.77
2023-02-22T18:16:13.149Z,47.64
2023-02-22T18:21:16.246Z,47.68
2023-02-22T18:26:21.336Z,47.90
2023-02-22T18:31:24.559Z,47.75
2023-02-22T18:36:27.449Z,47.87
2023-02-22T18:41:31.726Z,47.92
2023-02-22T18:46:34.638Z,47.95
2023-02-22T18:51:39.836Z,47.94
2023-02-22T18:56:44.235Z,47.94
2023-02-22T19:01:49.129Z,47.64
2023-02-22T19:06:52.137Z,47.87
2023-02-22T19:11:56.289Z,47.70
2023-02-22T19:17:01.489Z,47.80
2023-02-22T19:22:04.743Z,47.65
2023-02-22T19:27:08.954Z,47.54
2023-02-22T19:32:12.387Z,47.74
2023-02-22T19:37:15.358Z,47.55
2023-02-22T19:42:19.687Z,47.59
2023-02-22T19:47:22.567Z,47.58
2023-02-22T19:52:25.440Z,47.37
2023-02-22T19:57:29.882Z,47.45
2023-02-22T20:02:32.981Z,47.33
2023-02-22T20:07:35.870Z,47.33
2023-02-22T20:12:40.038Z,47.37
2023-02-22T20:17:44.823Z,47.36
2023-02-22T20:22:47.809Z,47.35
2023-02-22T20:27:52.024Z,46.98
2023-02-22T20:32:55.355Z,47.07
2023-02-22T20:37:58.273Z,46.87
2023-02-22T20:43:02.451Z,47.02
2023-02-22T20:48:05.567Z,46.73
2023-02-22T20:53:08.984Z,46.66
2023-02-22T20:58:13.151Z,46.58
2023-02-22T21:03:15.954Z,46.45
2023-02-22T21:08:19.013Z,46.46
2023-02-22T21:13:23.384Z,46.58
2023-02-22T21:18:26.397Z,46.27
2023-02-22T21:23:30.393Z,46.26
2023-02-22T21:28:50.441Z,46.26
2023-02-22T21:33:54.765Z,46.04
2023-02-22T21:38:58.626Z,46.03
2023-02-22T21:44:02.837Z,46.17
2023-02-22T21:49:05.769Z,46.21
2023-02-22T21:54:09.503Z,46.30
2023-02-22T21:59:14.683Z,46.29
2023-02-22T22:04:19.129Z,46.21
2023-02-22T22:09:23.549Z,46.37
2023-02-22T22:14:28.116Z,46.47
2023-02-22T22:19:31.776Z,46.39
2023-02-22T22:24:35.142Z,46.59
2023-02-22T22:29:39.287Z,46.51
2023-02-22T22:34:42.570Z,46.68
2023-02-22T22:39:45.572Z,46.52
2023-02-22T22:44:51.565Z,46.63
2023-02-22T22:50:01.280Z,46.59
2023-02-22T22:55:07.012Z,46.73
2023-02-22T23:00:32.797Z,46.54
2023-02-22T23:05:39.946Z,46.84
2023-02-22T23:10:42.902Z,46.72
2023-02-22T23:15:48.092Z,46.79
2023-02-22T23:20:55.123Z,46.67
2023-02-22T23:26:11.384Z,46.58
2023-02-22T23:31:16.814Z,46.57
2023-02-22T23:36:20.024Z,46.70
2023-02-22T23:41:25.003Z,46.63
2023-02-22T23:46:32.665Z,46.46
2023-02-22T23:51:39.366Z,46.42
2023-02-22T23:56:47.061Z,46.47
